Time;durP1;ratioP1;P1;durP2;ratioP2;P2;SDS_P1;SDS_P2;PMS_P1;PMS_P2;Temp;Humidity;BMP_temperature;BMP_pressure;BME280_temperature;BME280_humidity;BME280_pressure;Samples;Min_cycle;Max_cycle;Signal;HPM_P1;HPM_P2
2024/03/13 00:01:53;;;;;;;30.30;15.35;;;10.20;83.60;;;;;;5021952;28;20420;-79
2024/03/13 00:04:19;;;;;;;25.90;14.93;;;9.40;83.20;;;;;;5023345;28;20385;-80
2024/03/13 00:06:46;;;;;;;29.20;15.70;;;9.40;82.40;;;;;;5005065;28;20485;-79
2024/03/13 00:09:12;;;;;;;28.98;15.35;;;9.40;83.50;;;;;;5021724;28;20397;-80
2024/03/13 00:11:40;;;;;;;29.63;16.02;;;9.50;83.70;;;;;;5025026;28;20408;-79
2024/03/13 00:14:06;;;;;;;26.17;13.93;;;9.40;83.50;;;;;;5023220;28;20392;-78
2024/03/13 00:16:32;;;;;;;24.27;13.70;;;9.40;82.50;;;;;;5023435;28;20560;-79
2024/03/13 00:18:58;;;;;;;27.77;14.00;;;9.40;82.90;;;;;;5023405;28;20393;-79
2024/03/13 00:21:26;;;;;;;23.08;13.52;;;9.50;82.10;;;;;;5023137;28;20415;-79
2024/03/13 00:23:52;;;;;;;29.10;14.68;;;9.40;83.10;;;;;;5025880;28;20381;-79
2024/03/13 00:26:21;;;;;;;30.13;15.48;;;9.30;84.50;;;;;;5029531;28;20704;-79
2024/03/13 00:28:48;;;;;;;31.63;15.75;;;9.30;86.00;;;;;;5023291;28;20424;-80
2024/03/13 00:31:14;;;;;;;27.48;14.93;;;9.30;86.00;;;;;;5020891;28;20407;-79
2024/03/13 00:33:40;;;;;;;25.73;14.30;;;9.40;84.80;;;;;;5028958;28;20443;-79
2024/03/13 00:36:08;;;;;;;27.85;15.15;;;9.40;83.80;;;;;;5028722;28;20420;-77
2024/03/13 00:38:34;;;;;;;28.55;14.63;;;9.40;84.20;;;;;;5011483;28;20385;-79
2024/03/13 00:41:00;;;;;;;28.10;14.60;;;9.50;84.30;;;;;;5013614;28;20422;-80
2024/03/13 00:43:26;;;;;;;24.27;13.63;;;9.40;84.20;;;;;;5027153;28;20437;-79
2024/03/13 00:45:52;;;;;;;25.90;14.10;;;9.30;85.50;;;;;;5023981;28;20420;-79
2024/03/13 00:48:20;;;;;;;27.13;14.10;;;9.30;85.70;;;;;;5022968;28;20967;-79
2024/03/13 00:50:48;;;;;;;28.80;13.90;;;9.30;85.70;;;;;;5022785;28;20411;-80
2024/03/13 00:53:16;;;;;;;25.80;14.32;;;9.40;85.80;;;;;;5006022;28;20389;-78
2024/03/13 00:55:42;;;;;;;28.95;15.55;;;9.30;86.60;;;;;;5008537;28;20421;-78
2024/03/13 00:58:08;;;;;;;29.63;14.60;;;9.40;87.10;;;;;;5024220;28;20381;-79
2024/03/13 01:00:38;;;;;;;29.90;15.70;;;9.40;85.30;;;;;;5026377;28;20397;-79
2024/03/13 01:03:05;;;;;;;27.73;14.48;;;9.50;84.40;;;;;;5025771;28;20396;-79
2024/03/13 01:05:31;;;;;;;27.98;16.10;;;9.40;85.70;;;;;;5025161;28;20392;-79
2024/03/13 01:07:57;;;;;;;37.45;17.48;;;9.40;87.00;;;;;;5004840;28;20388;-79
2024/03/13 01:10:26;;;;;;;29.70;16.07;;;9.40;87.10;;;;;;5023462;28;20428;-79
2024/03/13 01:12:53;;;;;;;28.30;15.27;;;9.40;87.60;;;;;;5027022;28;20408;-80
2024/03/13 01:15:20;;;;;;;29.15;15.85;;;9.40;89.80;;;;;;5028284;28;20400;-79
2024/03/13 01:17:46;;;;;;;32.23;17.03;;;9.40;91.50;;;;;;5027534;28;20515;-79
2024/03/13 01:20:15;;;;;;;29.48;16.70;;;9.40;93.90;;;;;;5027673;28;20416;-79
2024/03/13 01:22:43;;;;;;;32.13;16.80;;;9.40;95.10;;;;;;5023265;28;20457;-80
2024/03/13 01:25:10;;;;;;;34.33;17.50;;;9.30;97.20;;;;;;5023746;28;20377;-80
2024/03/13 01:27:37;;;;;;;34.40;16.97;;;9.30;98.50;;;;;;5005472;28;20492;-80
2024/03/13 01:30:03;;;;;;;28.13;15.70;;;9.20;99.40;;;;;;5023369;28;20389;-80
2024/03/13 01:32:29;;;;;;;34.15;17.98;;;9.20;99.90;;;;;;5024050;28;20397;-80
2024/03/13 01:34:55;;;;;;;33.83;18.30;;;9.30;99.90;;;;;;5002695;28;20454;-81
2024/03/13 01:40:06;;;;;;;30.33;16.02;;;9.20;99.90;;;;;;5020680;28;20496;-79
2024/03/13 01:56:59;;;;;;;31.50;16.20;;;9.10;99.90;;;;;;5031205;28;20485;-78
2024/03/13 01:59:35;;;;;;;26.65;14.65;;;9.00;99.90;;;;;;5035186;28;20384;-78
2024/03/13 02:04:48;;;;;;;25.45;13.43;;;9.00;99.90;;;;;;5025757;28;20419;-79
2024/03/13 02:07:15;;;;;;;28.50;15.50;;;9.00;99.90;;;;;;5006587;28;20400;-79
2024/03/13 02:09:40;;;;;;;24.02;12.63;;;9.10;99.90;;;;;;5024691;28;20779;-79
2024/03/13 02:12:10;;;;;;;23.40;12.75;;;9.00;99.90;;;;;;5023431;28;20424;-77
2024/03/13 02:14:36;;;;;;;23.40;13.27;;;9.00;99.90;;;;;;5023040;28;20388;-79
2024/03/13 02:17:02;;;;;;;25.95;12.38;;;9.00;99.90;;;;;;5020712;28;20389;-79
2024/03/13 02:19:31;;;;;;;23.67;13.40;;;9.00;99.90;;;;;;5020787;28;20433;-77
2024/03/13 02:22:00;;;;;;;19.98;12.10;;;9.00;99.90;;;;;;5012561;28;20400;-77
2024/03/13 02:24:26;;;;;;;19.50;10.60;;;9.00;99.90;;;;;;5012837;28;20408;-77
2024/03/13 02:26:52;;;;;;;19.97;11.53;;;9.00;99.90;;;;;;5012550;28;20439;-77
2024/03/13 02:29:18;;;;;;;18.60;10.75;;;9.10;99.90;;;;;;4996043;28;20405;-77
2024/03/13 02:31:44;;;;;;;19.83;11.20;;;9.10;99.90;;;;;;5017909;28;20416;-76
2024/03/13 02:34:10;;;;;;;14.77;9.60;;;9.10;99.90;;;;;;5012220;28;20385;-77
2024/03/13 02:36:35;;;;;;;18.53;10.90;;;9.10;99.90;;;;;;5011579;28;20384;-77
2024/03/13 02:39:02;;;;;;;17.47;10.33;;;9.10;99.90;;;;;;5014634;28;20384;-78
2024/03/13 02:41:27;;;;;;;17.20;9.80;;;9.10;99.90;;;;;;5019737;28;20397;-77
2024/03/13 02:43:57;;;;;;;17.00;9.30;;;9.10;99.90;;;;;;5014942;28;20388;-77
2024/03/13 02:46:23;;;;;;;19.70;10.60;;;9.10;99.90;;;;;;4995010;28;20389;-77
2024/03/13 02:48:48;;;;;;;17.45;10.65;;;9.10;99.90;;;;;;5013560;28;20457;-78
2024/03/13 02:51:15;;;;;;;18.98;10.15;;;9.10;99.90;;;;;;5012866;28;20962;-77
2024/03/13 02:53:41;;;;;;;13.30;8.65;;;9.20;99.90;;;;;;5020656;28;20389;-75
2024/03/13 02:56:10;;;;;;;13.68;8.50;;;9.20;99.90;;;;;;5029418;28;20411;-77
2024/03/13 02:58:35;;;;;;;14.38;9.38;;;9.10;99.90;;;;;;5026897;28;20392;-78
2024/03/13 03:01:01;;;;;;;15.43;9.13;;;9.10;99.90;;;;;;5023801;28;20527;-75
2024/03/13 03:03:30;;;;;;;11.43;7.85;;;9.10;99.90;;;;;;5025357;28;20393;-76
2024/03/13 03:06:01;;;;;;;13.25;8.73;;;9.10;99.90;;;;;;5025767;28;20385;-78
2024/03/13 03:08:28;;;;;;;12.20;8.43;;;9.10;99.90;;;;;;5027385;28;20424;-77
2024/03/13 03:10:53;;;;;;;11.00;7.38;;;9.10;99.90;;;;;;5024323;28;20495;-76
2024/03/13 03:13:19;;;;;;;11.88;8.00;;;9.10;99.90;;;;;;5014613;28;20416;-76
2024/03/13 03:15:44;;;;;;;10.35;7.05;;;9.10;99.90;;;;;;5011329;28;20480;-78
2024/03/13 03:18:13;;;;;;;12.60;8.20;;;9.10;99.90;;;;;;5011014;28;20427;-77
2024/03/13 03:20:39;;;;;;;10.70;7.90;;;9.10;99.90;;;;;;5011539;28;20400;-78
2024/03/13 03:23:08;;;;;;;12.10;7.95;;;9.10;99.90;;;;;;5014856;28;20388;-76
2024/03/13 03:25:34;;;;;;;12.23;8.23;;;9.10;99.90;;;;;;5014935;28;20519;-78
2024/03/13 03:27:59;;;;;;;11.30;7.90;;;9.10;99.90;;;;;;5016480;28;20879;-77
2024/03/13 03:30:30;;;;;;;9.88;7.20;;;9.10;99.90;;;;;;4999164;28;20408;-78
2024/03/13 03:32:56;;;;;;;12.13;7.50;;;9.20;99.90;;;;;;5015889;28;20419;-77
2024/03/13 03:35:23;;;;;;;10.75;7.30;;;9.10;99.90;;;;;;5015660;28;20451;-77
2024/03/13 03:37:48;;;;;;;11.85;7.57;;;9.00;99.90;;;;;;5019101;28;20380;-76
2024/03/13 03:40:16;;;;;;;11.32;8.10;;;9.00;99.90;;;;;;5023317;28;20403;-78
2024/03/13 03:42:42;;;;;;;10.57;7.20;;;9.00;99.90;;;;;;5025581;28;20804;-78
2024/03/13 03:45:08;;;;;;;8.43;6.93;;;9.00;99.90;;;;;;5020608;28;20396;-78
2024/03/13 03:47:34;;;;;;;9.85;7.30;;;9.10;99.90;;;;;;5016303;28;20512;-77
2024/03/13 03:50:00;;;;;;;8.85;6.80;;;9.10;99.90;;;;;;5016794;28;20389;-78
2024/03/13 03:52:25;;;;;;;10.97;7.83;;;9.10;99.90;;;;;;5017688;28;20415;-77
2024/03/13 03:54:51;;;;;;;10.50;7.67;;;9.10;99.90;;;;;;5016427;28;20755;-78
2024/03/13 03:57:16;;;;;;;12.50;8.27;;;9.10;99.90;;;;;;4997601;28;20466;-78
2024/03/13 03:59:42;;;;;;;10.93;7.80;;;9.10;99.90;;;;;;4997067;28;20403;-76
2024/03/13 04:02:07;;;;;;;10.98;7.70;;;9.10;99.90;;;;;;5016629;28;20393;-78
2024/03/13 04:04:33;;;;;;;9.25;7.30;;;9.20;99.90;;;;;;5015370;28;20416;-77
2024/03/13 04:06:58;;;;;;;10.35;7.80;;;9.20;99.90;;;;;;5014481;28;20401;-77
2024/03/13 04:09:24;;;;;;;9.73;6.53;;;9.10;99.90;;;;;;5013907;28;20400;-77
2024/03/13 04:11:52;;;;;;;10.60;7.90;;;9.20;99.90;;;;;;5014692;28;20412;-77
2024/03/13 04:14:18;;;;;;;11.02;7.72;;;9.10;99.90;;;;;;5018425;28;20377;-77
2024/03/13 04:16:45;;;;;;;9.20;6.88;;;9.10;99.90;;;;;;5018298;28;20400;-78
2024/03/13 04:19:11;;;;;;;9.80;7.75;;;9.10;99.90;;;;;;5014212;28;20554;-77
2024/03/13 04:21:40;;;;;;;7.07;6.20;;;9.30;99.90;;;;;;5013994;28;20395;-77
2024/03/13 04:24:09;;;;;;;7.75;6.10;;;9.20;99.90;;;;;;5014868;28;20388;-77
2024/03/13 04:26:40;;;;;;;7.03;5.75;;;9.20;99.90;;;;;;5014504;28;20393;-77
2024/03/13 04:29:07;;;;;;;10.30;7.20;;;9.10;99.90;;;;;;5015363;28;20429;-78
2024/03/13 04:31:37;;;;;;;9.63;6.90;;;9.10;99.90;;;;;;5015105;28;20727;-77
2024/03/13 04:34:04;;;;;;;8.63;6.53;;;9.10;99.90;;;;;;4997591;28;20759;-77
2024/03/13 04:36:32;;;;;;;7.93;6.55;;;9.10;99.90;;;;;;5014794;28;20399;-77
2024/03/13 04:38:59;;;;;;;8.17;6.30;;;9.10;99.90;;;;;;5018458;28;20800;-78
2024/03/13 04:41:24;;;;;;;7.23;5.97;;;9.10;99.90;;;;;;5013482;28;20396;-77
2024/03/13 04:43:50;;;;;;;9.90;7.17;;;9.10;99.90;;;;;;5013284;28;20406;-76
2024/03/13 04:46:18;;;;;;;7.77;6.30;;;9.10;99.90;;;;;;5014288;28;20389;-77
2024/03/13 04:48:45;;;;;;;8.52;6.60;;;9.10;99.90;;;;;;5013081;28;20392;-77
2024/03/13 04:51:14;;;;;;;7.45;6.40;;;9.10;99.90;;;;;;5013485;28;20437;-78
2024/03/13 04:53:39;;;;;;;9.18;6.53;;;9.20;99.90;;;;;;5013528;28;20447;-78
2024/03/13 04:56:06;;;;;;;7.80;6.35;;;9.20;99.90;;;;;;5013694;28;20387;-76
2024/03/13 04:58:33;;;;;;;7.38;6.30;;;9.20;99.90;;;;;;4995602;28;20397;-78
2024/03/13 05:00:59;;;;;;;9.03;6.93;;;9.10;99.90;;;;;;5014641;28;20396;-76
2024/03/13 05:03:24;;;;;;;8.40;6.40;;;9.20;99.90;;;;;;5014039;28;20760;-79
2024/03/13 05:05:50;;;;;;;8.80;6.63;;;9.20;99.90;;;;;;5014190;28;20749;-78
2024/03/13 05:08:16;;;;;;;7.97;6.10;;;9.30;99.90;;;;;;5013740;28;20396;-77
2024/03/13 05:10:45;;;;;;;7.90;6.20;;;9.20;99.90;;;;;;5012688;28;20420;-78
2024/03/13 05:13:10;;;;;;;9.20;6.00;;;9.20;99.90;;;;;;4996560;28;20622;-78
2024/03/13 05:15:36;;;;;;;8.27;6.28;;;9.30;99.90;;;;;;5012855;28;20412;-77
2024/03/13 05:18:02;;;;;;;6.28;5.38;;;9.30;99.90;;;;;;5013989;28;20388;-77
2024/03/13 05:20:28;;;;;;;8.13;6.22;;;9.20;99.90;;;;;;5013379;28;20427;-78
2024/03/13 05:22:54;;;;;;;7.47;5.60;;;9.20;99.90;;;;;;4995929;28;20389;-79
2024/03/13 05:25:22;;;;;;;7.65;5.97;;;9.20;99.90;;;;;;5014837;28;20708;-78
2024/03/13 05:27:51;;;;;;;6.60;5.70;;;9.20;99.90;;;;;;5012805;28;20412;-77
2024/03/13 05:30:17;;;;;;;7.70;6.25;;;9.20;99.90;;;;;;5006108;28;20443;-77
2024/03/13 05:32:43;;;;;;;8.53;6.30;;;9.20;99.90;;;;;;5027542;28;20447;-78
2024/03/13 05:35:09;;;;;;;7.17;5.57;;;9.10;99.90;;;;;;5025648;28;20396;-77
2024/03/13 05:37:35;;;;;;;6.63;5.63;;;9.20;99.90;;;;;;5024287;28;20385;-77
2024/03/13 05:40:12;;;;;;;9.10;6.90;;;9.20;99.90;;;;;;5025730;28;20411;-77
2024/03/13 05:42:39;;;;;;;7.50;5.70;;;9.20;99.90;;;;;;5042125;28;20391;-76
2024/03/13 05:45:07;;;;;;;7.28;5.53;;;9.30;99.90;;;;;;5041582;28;20384;-79
2024/03/13 05:47:32;;;;;;;7.35;5.95;;;9.30;99.90;;;;;;5041519;28;20391;-77
2024/03/13 05:49:58;;;;;;;7.90;6.03;;;9.30;99.90;;;;;;5041960;28;20406;-77
2024/03/13 05:52:23;;;;;;;7.50;5.90;;;9.30;99.90;;;;;;5042415;28;20434;-77
2024/03/13 05:54:49;;;;;;;10.97;7.87;;;9.30;99.90;;;;;;5029502;28;20880;-75
2024/03/13 05:57:14;;;;;;;10.47;7.47;;;9.30;99.90;;;;;;5049637;28;20428;-75
2024/03/13 05:59:40;;;;;;;9.57;7.20;;;9.30;99.90;;;;;;5045770;28;20397;-72
2024/03/13 06:02:06;;;;;;;6.78;5.72;;;9.40;99.90;;;;;;5012931;28;20392;-71
2024/03/13 06:04:33;;;;;;;8.77;6.93;;;9.40;99.90;;;;;;5014053;28;20424;-72
2024/03/13 06:06:59;;;;;;;10.82;7.47;;;9.40;99.90;;;;;;4995772;28;20959;-72
2024/03/13 06:09:25;;;;;;;9.10;7.03;;;9.40;99.90;;;;;;5012779;28;20472;-74
2024/03/13 06:11:52;;;;;;;8.15;6.35;;;9.40;99.90;;;;;;5024494;28;20414;-71
2024/03/13 06:14:18;;;;;;;8.90;6.83;;;9.40;99.90;;;;;;5035830;28;20396;-73
2024/03/13 06:16:43;;;;;;;9.67;7.10;;;9.40;99.90;;;;;;5019090;28;20773;-74
2024/03/13 06:19:09;;;;;;;8.57;6.40;;;9.40;99.90;;;;;;5036964;28;20456;-74
2024/03/13 06:21:35;;;;;;;7.60;6.40;;;9.40;99.90;;;;;;5026430;28;20475;-73
2024/03/13 06:24:03;;;;;;;9.27;7.40;;;9.40;99.90;;;;;;5023103;28;20417;-75
2024/03/13 06:26:28;;;;;;;10.07;7.18;;;9.50;99.90;;;;;;5027038;28;20763;-74
2024/03/13 06:31:45;;;;;;;10.50;7.38;;;9.50;99.90;;;;;;5035282;28;20537;-77
2024/03/13 06:34:10;;;;;;;11.13;7.38;;;9.50;99.90;;;;;;5034802;28;20410;-76
2024/03/13 06:36:37;;;;;;;11.65;8.40;;;9.60;99.90;;;;;;5038127;28;20386;-76
2024/03/13 06:39:06;;;;;;;11.00;7.80;;;9.60;99.90;;;;;;5034992;28;20456;-77
2024/03/13 06:41:32;;;;;;;10.32;7.50;;;9.60;99.90;;;;;;5042599;28;20390;-77
2024/03/13 06:43:58;;;;;;;12.88;8.80;;;9.60;99.90;;;;;;5047964;28;20371;-76
2024/03/13 06:46:28;;;;;;;9.27;6.82;;;9.60;99.90;;;;;;5046960;28;20406;-76
2024/03/13 06:48:54;;;;;;;11.23;7.90;;;9.60;99.90;;;;;;5039259;28;20395;-77
2024/03/13 06:51:20;;;;;;;13.60;9.52;;;9.70;99.90;;;;;;5033761;28;20409;-76
2024/03/13 06:53:45;;;;;;;11.00;8.05;;;9.80;99.90;;;;;;5015526;28;20387;-77
2024/03/13 06:56:11;;;;;;;10.80;7.50;;;9.90;99.90;;;;;;5035843;28;20383;-76
2024/03/13 06:58:37;;;;;;;10.40;7.45;;;9.90;99.90;;;;;;5024458;28;20429;-77
2024/03/13 07:01:10;;;;;;;12.00;7.53;;;10.00;99.90;;;;;;5042482;28;20404;-76
2024/03/13 07:03:35;;;;;;;10.63;8.48;;;10.10;99.90;;;;;;5041333;28;20387;-77
2024/03/13 07:06:01;;;;;;;9.90;8.00;;;10.10;99.90;;;;;;5042710;28;20406;-76
2024/03/13 07:08:26;;;;;;;9.63;7.40;;;10.10;99.90;;;;;;5039573;28;20419;-76
2024/03/13 07:10:52;;;;;;;9.70;6.73;;;10.20;99.90;;;;;;5043107;28;20410;-77
2024/03/13 07:13:19;;;;;;;9.80;7.33;;;10.20;99.90;;;;;;5041066;28;20449;-77
2024/03/13 07:15:44;;;;;;;10.95;7.97;;;10.20;99.90;;;;;;5042587;28;20379;-75
2024/03/13 07:18:10;;;;;;;10.80;7.67;;;10.30;99.90;;;;;;5047257;28;20440;-75
2024/03/13 07:20:36;;;;;;;10.93;8.40;;;10.30;99.90;;;;;;5043159;28;20387;-77
2024/03/13 07:23:01;;;;;;;11.43;8.20;;;10.30;99.90;;;;;;5042378;28;20430;-77
2024/03/13 07:25:27;;;;;;;13.40;9.00;;;10.40;99.90;;;;;;5044808;28;20397;-77
2024/03/13 07:27:53;;;;;;;19.15;11.18;;;10.40;99.90;;;;;;5043436;28;20394;-76
2024/03/13 07:30:20;;;;;;;11.05;7.80;;;10.40;99.90;;;;;;5037761;28;20395;-77
2024/03/13 07:32:46;;;;;;;11.00;7.97;;;10.40;99.90;;;;;;5034836;28;20379;-77
2024/03/13 07:35:12;;;;;;;8.93;7.47;;;10.50;99.90;;;;;;5035510;28;20543;-76
2024/03/13 07:37:38;;;;;;;11.85;7.85;;;10.40;99.90;;;;;;5035337;28;20528;-77
2024/03/13 07:40:05;;;;;;;11.10;7.83;;;10.40;99.90;;;;;;5038675;28;20382;-77
2024/03/13 07:42:34;;;;;;;10.45;7.68;;;10.40;99.90;;;;;;5035600;28;20390;-77
2024/03/13 07:44:59;;;;;;;9.40;7.35;;;10.40;99.90;;;;;;5034857;28;20430;-77
2024/03/13 07:47:25;;;;;;;9.67;7.03;;;10.50;99.90;;;;;;5035382;28;20445;-76
2024/03/13 07:49:50;;;;;;;12.47;9.00;;;10.50;99.90;;;;;;5034854;28;20395;-76
2024/03/13 07:52:17;;;;;;;10.23;7.30;;;10.70;99.90;;;;;;5033983;28;20406;-78
2024/03/13 07:54:42;;;;;;;8.75;7.00;;;10.80;99.90;;;;;;5034777;28;20462;-77
2024/03/13 07:57:13;;;;;;;8.50;6.85;;;10.80;99.90;;;;;;5035166;28;20426;-77
2024/03/13 07:59:43;;;;;;;11.00;7.10;;;10.90;99.90;;;;;;5034122;28;20375;-76
2024/03/13 08:02:08;;;;;;;7.53;6.55;;;10.90;99.90;;;;;;5034690;28;20387;-79
2024/03/13 08:04:36;;;;;;;8.03;6.77;;;10.90;99.90;;;;;;5034279;28;20453;-77
2024/03/13 08:07:03;;;;;;;8.93;6.60;;;10.90;99.90;;;;;;5033660;28;20458;-77
2024/03/13 08:09:29;;;;;;;7.55;6.32;;;11.10;99.90;;;;;;5034098;28;20386;-77
2024/03/13 08:11:54;;;;;;;7.53;6.10;;;11.10;99.90;;;;;;5034835;28;20403;-77
2024/03/13 08:14:21;;;;;;;11.13;7.40;;;11.10;99.90;;;;;;5037446;28;20459;-77
2024/03/13 08:16:47;;;;;;;9.00;6.90;;;11.00;99.90;;;;;;5034459;28;20822;-77
2024/03/13 08:19:12;;;;;;;12.52;9.05;;;11.00;99.90;;;;;;5033969;28;20440;-77
2024/03/13 08:21:38;;;;;;;11.63;7.18;;;11.00;99.90;;;;;;5040046;28;20904;-77
2024/03/13 08:24:04;;;;;;;7.40;6.30;;;10.90;99.90;;;;;;5023503;28;20391;-77
2024/03/13 08:26:29;;;;;;;7.37;5.93;;;10.90;99.90;;;;;;5039115;28;20380;-77
2024/03/13 08:28:56;;;;;;;8.50;6.40;;;10.90;99.90;;;;;;5034332;28;20395;-77
2024/03/13 08:31:22;;;;;;;8.90;6.50;;;11.00;99.90;;;;;;5035120;28;20399;-77
2024/03/13 08:33:48;;;;;;;10.65;7.03;;;10.90;99.90;;;;;;5031848;28;20392;-77
2024/03/13 08:36:14;;;;;;;10.27;6.50;;;11.00;99.90;;;;;;5036690;28;20479;-77
2024/03/13 08:38:39;;;;;;;9.23;7.13;;;11.00;99.90;;;;;;5034211;28;20457;-77
2024/03/13 08:41:06;;;;;;;9.85;7.32;;;11.00;99.90;;;;;;5033535;28;20387;-76
2024/03/13 08:43:31;;;;;;;10.63;8.02;;;11.10;99.90;;;;;;5033344;28;20395;-77
2024/03/13 08:45:57;;;;;;;10.17;7.70;;;11.10;99.90;;;;;;5033578;28;20412;-76
2024/03/13 08:48:25;;;;;;;11.53;8.27;;;11.10;99.90;;;;;;5034164;28;20392;-77
2024/03/13 08:50:51;;;;;;;12.45;7.68;;;11.20;99.90;;;;;;5033389;28;20410;-80
2024/03/13 08:53:18;;;;;;;14.10;8.60;;;11.30;99.90;;;;;;5015720;28;20379;-77
2024/03/13 08:55:43;;;;;;;14.67;9.13;;;11.40;99.90;;;;;;5016372;28;20584;-80
2024/03/13 08:58:09;;;;;;;16.30;10.20;;;11.50;99.90;;;;;;5034214;28;20419;-77
2024/03/13 09:00:34;;;;;;;17.53;10.03;;;11.60;99.90;;;;;;5032776;28;20395;-77
2024/03/13 09:03:01;;;;;;;15.75;9.90;;;11.80;99.90;;;;;;5033235;28;20387;-78
2024/03/13 09:05:28;;;;;;;16.80;10.13;;;11.90;99.90;;;;;;5034224;28;20387;-78
2024/03/13 09:07:54;;;;;;;19.38;10.90;;;12.00;99.90;;;;;;5034015;28;20391;-78
2024/03/13 09:10:20;;;;;;;21.00;10.85;;;12.20;99.90;;;;;;5035104;28;20441;-77
2024/03/13 09:12:46;;;;;;;16.67;9.63;;;12.30;99.90;;;;;;5034026;28;20948;-78
2024/03/13 09:15:13;;;;;;;17.58;10.20;;;12.40;99.90;;;;;;5018694;28;20384;-77
2024/03/13 09:17:39;;;;;;;18.05;9.38;;;12.60;99.90;;;;;;5036575;28;20440;-78
2024/03/13 09:20:06;;;;;;;13.48;8.50;;;12.70;99.90;;;;;;5038262;28;20387;-77
2024/03/13 09:22:31;;;;;;;13.93;8.90;;;12.90;97.40;;;;;;5021207;28;20418;-77
2024/03/13 09:24:57;;;;;;;13.38;8.95;;;13.00;94.80;;;;;;5035499;28;20395;-77
2024/03/13 09:27:22;;;;;;;17.73;8.77;;;13.10;95.40;;;;;;5017477;28;20390;-77
2024/03/13 09:29:49;;;;;;;16.90;9.07;;;13.10;92.40;;;;;;5035117;28;20451;-75
2024/03/13 09:32:14;;;;;;;16.25;8.32;;;13.10;90.40;;;;;;5035925;28;20403;-76
2024/03/13 09:34:40;;;;;;;15.77;9.10;;;13.00;92.10;;;;;;5032699;28;20381;-77
2024/03/13 09:37:07;;;;;;;17.48;9.05;;;13.00;90.70;;;;;;5033186;28;20440;-77
2024/03/13 09:39:33;;;;;;;16.58;8.30;;;13.00;91.50;;;;;;5032791;28;20433;-76
2024/03/13 09:41:59;;;;;;;19.27;8.93;;;12.90;90.50;;;;;;5033937;28;20395;-77
2024/03/13 09:44:29;;;;;;;16.95;9.75;;;12.90;92.30;;;;;;5035470;28;20391;-76
2024/03/13 09:46:57;;;;;;;14.80;9.38;;;12.90;92.30;;;;;;5040701;28;20394;-77
2024/03/13 09:49:25;;;;;;;18.88;9.60;;;12.90;91.30;;;;;;5045532;28;20386;-77
2024/03/13 09:51:51;;;;;;;22.00;9.77;;;12.80;91.80;;;;;;5032043;28;20500;-77
2024/03/13 09:54:19;;;;;;;18.10;8.85;;;12.90;91.00;;;;;;5032510;28;20383;-77
2024/03/13 09:56:46;;;;;;;17.63;8.52;;;13.00;87.30;;;;;;5042820;28;20383;-76
2024/03/13 09:59:12;;;;;;;20.25;8.45;;;13.20;87.40;;;;;;5029177;28;20387;-76
2024/03/13 10:01:49;;;;;;;16.33;8.77;;;13.40;86.40;;;;;;5048160;28;20437;-77
2024/03/13 10:04:24;;;;;;;15.88;8.90;;;13.60;84.00;;;;;;5044845;28;20391;-77
2024/03/13 10:06:56;;;;;;;13.10;8.43;;;13.80;79.10;;;;;;5033701;28;20514;-77
2024/03/13 10:09:23;;;;;;;15.85;8.38;;;13.70;79.60;;;;;;5031911;28;20432;-77
2024/03/13 10:11:51;;;;;;;16.02;7.80;;;13.80;77.40;;;;;;5016813;28;20403;-77
2024/03/13 10:14:22;;;;;;;15.50;7.47;;;13.60;78.40;;;;;;5041687;28;20390;-77
2024/03/13 10:16:53;;;;;;;12.90;7.00;;;13.60;78.40;;;;;;5036730;28;20379;-77
2024/03/13 10:19:21;;;;;;;11.10;6.43;;;13.60;76.50;;;;;;5035879;28;20456;-76
2024/03/13 10:21:49;;;;;;;12.93;6.75;;;13.40;78.40;;;;;;5033721;28;20406;-77
2024/03/13 10:24:18;;;;;;;12.63;6.20;;;13.30;79.40;;;;;;5035686;28;20450;-77
2024/03/13 10:26:46;;;;;;;13.77;6.65;;;13.30;79.10;;;;;;5016591;28;20430;-77
2024/03/13 10:29:12;;;;;;;10.50;5.60;;;13.30;79.50;;;;;;5015479;28;20387;-77
2024/03/13 10:31:38;;;;;;;11.73;6.25;;;13.30;78.30;;;;;;5032072;28;20414;-77
2024/03/13 10:34:08;;;;;;;12.77;6.00;;;13.40;80.00;;;;;;5033034;28;20454;-77
2024/03/13 10:36:34;;;;;;;11.33;5.77;;;13.50;79.10;;;;;;5032147;28;20386;-77
2024/03/13 10:39:05;;;;;;;11.30;5.93;;;13.60;74.10;;;;;;5031634;28;20387;-78
2024/03/13 10:41:30;;;;;;;8.77;5.57;;;13.70;74.80;;;;;;5032152;28;20464;-77
2024/03/13 10:43:56;;;;;;;18.87;6.00;;;13.70;75.00;;;;;;5031531;28;20387;-77
2024/03/13 10:46:22;;;;;;;9.63;5.00;;;13.80;75.30;;;;;;5032697;28;20391;-77
2024/03/13 10:48:48;;;;;;;11.85;4.75;;;14.00;70.40;;;;;;5031454;28;20391;-77
2024/03/13 10:51:14;;;;;;;7.40;4.32;;;14.00;67.90;;;;;;5031405;28;20403;-76
2024/03/13 10:53:42;;;;;;;10.10;4.97;;;14.10;69.50;;;;;;5031678;28;20462;-77
2024/03/13 10:56:15;;;;;;;7.25;4.50;;;14.30;68.30;;;;;;5032099;28;20453;-76
2024/03/13 10:58:43;;;;;;;7.77;4.47;;;14.40;68.10;;;;;;5032162;28;20380;-78
2024/03/13 11:01:16;;;;;;;5.83;3.80;;;14.70;64.70;;;;;;5032045;28;20516;-76
2024/03/13 11:03:43;;;;;;;8.73;4.40;;;14.60;62.10;;;;;;5031972;28;20895;-77
2024/03/13 11:06:14;;;;;;;7.43;4.22;;;14.40;65.10;;;;;;5031801;28;20406;-77
2024/03/13 11:08:43;;;;;;;5.97;4.20;;;14.20;65.20;;;;;;5030864;28;21048;-77
2024/03/13 11:11:12;;;;;;;5.28;4.03;;;14.20;66.20;;;;;;5030222;28;20407;-77
2024/03/13 11:13:42;;;;;;;6.85;4.43;;;14.30;67.70;;;;;;5031443;28;20390;-76
2024/03/13 11:16:09;;;;;;;7.47;4.10;;;14.40;66.10;;;;;;5031495;28;20728;-77
2024/03/13 11:18:37;;;;;;;6.85;3.65;;;14.40;62.50;;;;;;5032041;28;20818;-76
2024/03/13 11:21:07;;;;;;;5.63;4.05;;;14.30;62.40;;;;;;5032789;28;20897;-77
2024/03/13 11:23:39;;;;;;;7.13;3.72;;;14.20;62.70;;;;;;5032642;28;20401;-77
2024/03/13 11:26:09;;;;;;;7.72;4.10;;;14.00;65.00;;;;;;5013538;28;20755;-77
2024/03/13 11:28:37;;;;;;;5.90;4.00;;;14.10;65.30;;;;;;5031789;28;20390;-77
2024/03/13 11:31:05;;;;;;;5.55;4.15;;;14.10;67.10;;;;;;5031997;28;20411;-77
2024/03/13 11:33:31;;;;;;;5.95;3.85;;;14.10;66.10;;;;;;5032075;28;20750;-77
2024/03/13 11:35:58;;;;;;;7.40;3.83;;;13.90;67.10;;;;;;5033334;28;20419;-77
2024/03/13 11:38:24;;;;;;;6.20;3.28;;;13.80;68.50;;;;;;5012401;28;20391;-77
2024/03/13 11:40:51;;;;;;;7.50;3.80;;;13.70;68.50;;;;;;5030939;28;20391;-76
2024/03/13 11:43:25;;;;;;;6.32;4.40;;;13.60;70.40;;;;;;5035746;28;20434;-77
2024/03/13 11:45:50;;;;;;;7.68;3.80;;;13.60;72.00;;;;;;5034832;28;20496;-78
2024/03/13 11:48:18;;;;;;;6.53;4.35;;;13.50;72.20;;;;;;5035438;28;20866;-77
2024/03/13 11:51:05;;;;;;;10.40;4.10;;;13.50;73.60;;;;;;5035190;28;20395;-77
2024/03/13 11:53:35;;;;;;;8.70;4.50;;;13.50;74.10;;;;;;5036181;28;20500;-77
2024/03/13 11:56:20;;;;;;;7.80;4.57;;;13.50;75.00;;;;;;5043451;28;20383;-76
2024/03/13 11:58:46;;;;;;;7.10;4.10;;;13.50;74.70;;;;;;5043709;28;20399;-77
2024/03/13 12:01:12;;;;;;;7.90;4.00;;;13.50;74.80;;;;;;5034049;28;20375;-75
2024/03/13 12:03:43;;;;;;;4.38;3.75;;;13.50;73.30;;;;;;5036056;28;20383;-77
2024/03/13 12:06:23;;;;;;;6.45;3.85;;;13.50;72.80;;;;;;5035167;28;20390;-76
2024/03/13 12:08:49;;;;;;;5.15;3.97;;;13.50;72.60;;;;;;5016903;28;20394;-77
2024/03/13 12:11:19;;;;;;;9.05;4.45;;;13.50;73.20;;;;;;5033606;28;20403;-76
2024/03/13 12:13:45;;;;;;;7.17;4.00;;;13.40;74.00;;;;;;5034955;28;20397;-76
2024/03/13 12:16:14;;;;;;;5.55;4.22;;;13.50;73.00;;;;;;5021170;28;20399;-78
2024/03/13 12:18:49;;;;;;;7.55;4.03;;;13.50;73.00;;;;;;5037937;28;20391;-79
2024/03/13 12:21:16;;;;;;;5.70;4.20;;;13.50;72.50;;;;;;5037269;28;20399;-79
2024/03/13 12:23:41;;;;;;;5.32;4.10;;;13.70;71.50;;;;;;5037355;28;20407;-79
2024/03/13 12:26:07;;;;;;;5.40;4.20;;;13.80;68.00;;;;;;5040147;28;20398;-79
2024/03/13 12:28:33;;;;;;;7.35;3.80;;;13.70;68.20;;;;;;5029048;28;20458;-78
2024/03/13 12:31:00;;;;;;;5.95;3.90;;;13.70;66.30;;;;;;5040490;28;20492;-78
2024/03/13 12:33:26;;;;;;;7.40;4.60;;;13.70;68.30;;;;;;5024968;28;20765;-77
2024/03/13 12:35:56;;;;;;;7.70;4.40;;;13.60;68.90;;;;;;5022481;28;20423;-78
2024/03/13 12:38:42;;;;;;;6.43;4.13;;;13.50;70.80;;;;;;5019377;28;20490;-78
2024/03/13 12:41:08;;;;;;;4.97;3.58;;;13.60;70.10;;;;;;5036922;28;20801;-79
2024/03/13 12:43:34;;;;;;;6.65;4.10;;;13.70;69.40;;;;;;5017401;28;20415;-79
2024/03/13 12:46:04;;;;;;;8.77;4.65;;;13.80;66.90;;;;;;5037237;28;20391;-78
2024/03/13 12:48:33;;;;;;;6.63;4.45;;;13.90;65.20;;;;;;5037453;28;20432;-79
2024/03/13 12:51:02;;;;;;;8.13;4.43;;;14.00;64.90;;;;;;5023802;28;20407;-79
2024/03/13 12:53:31;;;;;;;7.90;5.10;;;14.00;64.70;;;;;;5038349;28;20807;-78
2024/03/13 12:55:57;;;;;;;7.65;4.53;;;14.00;64.60;;;;;;5038012;28;20492;-78
2024/03/13 12:58:25;;;;;;;8.98;5.15;;;14.00;66.00;;;;;;5037671;28;20392;-78
2024/03/13 13:00:51;;;;;;;7.10;4.80;;;14.00;64.30;;;;;;5042159;28;20414;-77
2024/03/13 13:03:18;;;;;;;6.47;4.40;;;14.10;63.40;;;;;;5051972;28;20428;-77
2024/03/13 13:05:44;;;;;;;11.40;4.65;;;14.20;62.40;;;;;;5030764;28;20390;-78